sensor_id;sensor_type;location;lat;lon;timestamp;temperature;humidity
39931;DHT22;26635;-35.248;149.138;2023-12-14T00:01:03;26.20;71.00
39931;DHT22;26635;-35.248;149.138;2023-12-14T00:03:40;26.40;69.30
39931;DHT22;26635;-35.248;149.138;2023-12-14T00:06:12;26.70;68.50
39931;DHT22;26635;-35.248;149.138;2023-12-14T00:08:43;26.90;67.70
39931;DHT22;26635;-35.248;149.138;2023-12-14T00:11:17;27.00;67.00
39931;DHT22;26635;-35.248;149.138;2023-12-14T00:13:47;27.10;66.20
39931;DHT22;26635;-35.248;149.138;2023-12-14T00:16:18;27.10;65.20
39931;DHT22;26635;-35.248;149.138;2023-12-14T00:18:48;27.10;66.10
39931;DHT22;26635;-35.248;149.138;2023-12-14T00:21:18;27.10;65.70
39931;DHT22;26635;-35.248;149.138;2023-12-14T00:23:49;27.10;66.70
39931;DHT22;26635;-35.248;149.138;2023-12-14T00:26:20;27.40;66.70
39931;DHT22;26635;-35.248;149.138;2023-12-14T00:28:50;27.60;66.00
39931;DHT22;26635;-35.248;149.138;2023-12-14T00:31:29;27.70;66.40
39931;DHT22;26635;-35.248;149.138;2023-12-14T00:33:59;27.90;64.70
39931;DHT22;26635;-35.248;149.138;2023-12-14T00:36:30;28.00;65.00
39931;DHT22;26635;-35.248;149.138;2023-12-14T00:39:01;28.30;63.10
39931;DHT22;26635;-35.248;149.138;2023-12-14T00:41:33;28.30;63.60
39931;DHT22;26635;-35.248;149.138;2023-12-14T00:44:05;28.50;63.00
39931;DHT22;26635;-35.248;149.138;2023-12-14T00:46:35;28.70;62.40
39931;DHT22;26635;-35.248;149.138;2023-12-14T00:49:06;28.70;62.60
39931;DHT22;26635;-35.248;149.138;2023-12-14T00:51:37;28.70;61.20
39931;DHT22;26635;-35.248;149.138;2023-12-14T00:54:07;28.70;61.60
39931;DHT22;26635;-35.248;149.138;2023-12-14T00:56:37;28.70;61.40
39931;DHT22;26635;-35.248;149.138;2023-12-14T00:59:08;28.70;61.50
39931;DHT22;26635;-35.248;149.138;2023-12-14T01:01:39;28.80;61.30
39931;DHT22;26635;-35.248;149.138;2023-12-14T01:04:10;28.70;62.70
39931;DHT22;26635;-35.248;149.138;2023-12-14T01:06:42;28.50;61.40
39931;DHT22;26635;-35.248;149.138;2023-12-14T01:09:12;28.50;62.40
39931;DHT22;26635;-35.248;149.138;2023-12-14T01:11:43;28.60;62.40
39931;DHT22;26635;-35.248;149.138;2023-12-14T01:14:13;28.60;61.80
39931;DHT22;26635;-35.248;149.138;2023-12-14T01:16:43;28.60;62.70
39931;DHT22;26635;-35.248;149.138;2023-12-14T01:19:14;28.60;60.70
39931;DHT22;26635;-35.248;149.138;2023-12-14T01:21:44;28.60;61.10
39931;DHT22;26635;-35.248;149.138;2023-12-14T01:24:15;28.50;58.60
39931;DHT22;26635;-35.248;149.138;2023-12-14T01:26:45;28.30;59.50
39931;DHT22;26635;-35.248;149.138;2023-12-14T01:29:16;28.20;61.10
39931;DHT22;26635;-35.248;149.138;2023-12-14T01:31:48;28.10;60.80
39931;DHT22;26635;-35.248;149.138;2023-12-14T01:34:19;28.00;61.10
39931;DHT22;26635;-35.248;149.138;2023-12-14T01:36:50;28.00;62.70
39931;DHT22;26635;-35.248;149.138;2023-12-14T01:39:20;28.20;61.40
39931;DHT22;26635;-35.248;149.138;2023-12-14T01:41:50;28.30;59.90
39931;DHT22;26635;-35.248;149.138;2023-12-14T01:44:21;28.30;60.00
39931;DHT22;26635;-35.248;149.138;2023-12-14T01:46:51;28.40;59.60
39931;DHT22;26635;-35.248;149.138;2023-12-14T01:49:21;28.30;58.40
39931;DHT22;26635;-35.248;149.138;2023-12-14T01:51:52;28.30;56.20
39931;DHT22;26635;-35.248;149.138;2023-12-14T01:54:22;28.30;58.40
39931;DHT22;26635;-35.248;149.138;2023-12-14T01:56:52;28.50;56.30
39931;DHT22;26635;-35.248;149.138;2023-12-14T01:59:25;28.80;55.10
39931;DHT22;26635;-35.248;149.138;2023-12-14T02:01:56;28.90;53.70
39931;DHT22;26635;-35.248;149.138;2023-12-14T02:04:29;29.00;53.30
39931;DHT22;26635;-35.248;149.138;2023-12-14T02:07:00;29.30;54.00
39931;DHT22;26635;-35.248;149.138;2023-12-14T02:09:32;29.50;52.30
39931;DHT22;26635;-35.248;149.138;2023-12-14T02:12:02;29.60;51.90
39931;DHT22;26635;-35.248;149.138;2023-12-14T02:14:33;29.70;51.00
39931;DHT22;26635;-35.248;149.138;2023-12-14T02:17:04;29.80;49.50
39931;DHT22;26635;-35.248;149.138;2023-12-14T02:19:35;29.70;49.60
39931;DHT22;26635;-35.248;149.138;2023-12-14T02:22:05;29.50;49.00
39931;DHT22;26635;-35.248;149.138;2023-12-14T02:24:35;29.50;48.00
39931;DHT22;26635;-35.248;149.138;2023-12-14T02:27:06;29.50;48.40
39931;DHT22;26635;-35.248;149.138;2023-12-14T02:29:36;29.40;48.20
39931;DHT22;26635;-35.248;149.138;2023-12-14T02:32:07;29.20;48.20
39931;DHT22;26635;-35.248;149.138;2023-12-14T02:34:38;29.30;49.70
39931;DHT22;26635;-35.248;149.138;2023-12-14T02:37:08;29.50;50.40
39931;DHT22;26635;-35.248;149.138;2023-12-14T02:39:41;29.60;49.40
39931;DHT22;26635;-35.248;149.138;2023-12-14T02:42:11;29.60;48.90
39931;DHT22;26635;-35.248;149.138;2023-12-14T02:44:41;29.80;50.20
39931;DHT22;26635;-35.248;149.138;2023-12-14T02:47:12;29.80;50.20
39931;DHT22;26635;-35.248;149.138;2023-12-14T02:49:43;29.80;45.90
39931;DHT22;26635;-35.248;149.138;2023-12-14T02:52:14;29.60;48.80
39931;DHT22;26635;-35.248;149.138;2023-12-14T02:54:44;29.50;46.50
39931;DHT22;26635;-35.248;149.138;2023-12-14T02:57:15;29.50;47.70
39931;DHT22;26635;-35.248;149.138;2023-12-14T02:59:45;29.60;46.70
39931;DHT22;26635;-35.248;149.138;2023-12-14T03:02:16;29.50;46.00
39931;DHT22;26635;-35.248;149.138;2023-12-14T03:04:46;29.40;46.40
39931;DHT22;26635;-35.248;149.138;2023-12-14T03:07:17;29.40;47.10
39931;DHT22;26635;-35.248;149.138;2023-12-14T03:09:48;29.40;46.60
39931;DHT22;26635;-35.248;149.138;2023-12-14T03:12:19;29.40;46.80
39931;DHT22;26635;-35.248;149.138;2023-12-14T03:14:49;29.50;47.50
39931;DHT22;26635;-35.248;149.138;2023-12-14T03:17:21;29.50;46.60
39931;DHT22;26635;-35.248;149.138;2023-12-14T03:19:51;29.50;46.50
39931;DHT22;26635;-35.248;149.138;2023-12-14T03:22:22;29.50;47.20
39931;DHT22;26635;-35.248;149.138;2023-12-14T03:24:53;29.50;44.90
39931;DHT22;26635;-35.248;149.138;2023-12-14T03:27:23;29.40;47.00
39931;DHT22;26635;-35.248;149.138;2023-12-14T03:29:54;29.40;46.20
39931;DHT22;26635;-35.248;149.138;2023-12-14T03:32:24;29.30;47.30
39931;DHT22;26635;-35.248;149.138;2023-12-14T03:34:55;29.30;46.90
39931;DHT22;26635;-35.248;149.138;2023-12-14T03:37:25;29.10;45.80
39931;DHT22;26635;-35.248;149.138;2023-12-14T03:39:56;29.10;46.20
39931;DHT22;26635;-35.248;149.138;2023-12-14T03:42:27;29.10;45.90
39931;DHT22;26635;-35.248;149.138;2023-12-14T03:44:57;29.00;45.50
39931;DHT22;26635;-35.248;149.138;2023-12-14T03:47:27;29.10;46.90
39931;DHT22;26635;-35.248;149.138;2023-12-14T03:49:59;29.20;45.30
39931;DHT22;26635;-35.248;149.138;2023-12-14T03:52:29;29.10;43.70
39931;DHT22;26635;-35.248;149.138;2023-12-14T03:55:02;29.10;44.10
39931;DHT22;26635;-35.248;149.138;2023-12-14T03:57:32;29.10;43.70
39931;DHT22;26635;-35.248;149.138;2023-12-14T04:00:04;28.90;43.10
39931;DHT22;26635;-35.248;149.138;2023-12-14T04:02:34;28.90;43.70
39931;DHT22;26635;-35.248;149.138;2023-12-14T04:05:07;28.90;43.30
39931;DHT22;26635;-35.248;149.138;2023-12-14T04:07:40;28.80;42.20
39931;DHT22;26635;-35.248;149.138;2023-12-14T04:10:12;28.80;41.60
39931;DHT22;26635;-35.248;149.138;2023-12-14T04:12:44;28.70;42.90
39931;DHT22;26635;-35.248;149.138;2023-12-14T04:15:15;28.70;42.90
39931;DHT22;26635;-35.248;149.138;2023-12-14T04:17:46;28.60;44.20
39931;DHT22;26635;-35.248;149.138;2023-12-14T04:20:17;28.60;43.60
39931;DHT22;26635;-35.248;149.138;2023-12-14T04:22:47;28.70;44.60
39931;DHT22;26635;-35.248;149.138;2023-12-14T04:25:18;28.70;44.00
39931;DHT22;26635;-35.248;149.138;2023-12-14T04:27:48;28.60;43.60
39931;DHT22;26635;-35.248;149.138;2023-12-14T04:30:18;28.70;43.00
39931;DHT22;26635;-35.248;149.138;2023-12-14T04:32:51;28.60;42.10
39931;DHT22;26635;-35.248;149.138;2023-12-14T04:35:22;28.50;42.10
39931;DHT22;26635;-35.248;149.138;2023-12-14T04:37:52;28.50;42.30
39931;DHT22;26635;-35.248;149.138;2023-12-14T04:40:22;28.50;45.10
39931;DHT22;26635;-35.248;149.138;2023-12-14T04:42:53;28.40;42.30
39931;DHT22;26635;-35.248;149.138;2023-12-14T04:45:23;28.40;43.50
39931;DHT22;26635;-35.248;149.138;2023-12-14T04:47:53;28.30;43.70
39931;DHT22;26635;-35.248;149.138;2023-12-14T04:50:24;28.30;44.00
39931;DHT22;26635;-35.248;149.138;2023-12-14T04:52:54;28.30;43.10
39931;DHT22;26635;-35.248;149.138;2023-12-14T04:55:25;28.20;43.00
39931;DHT22;26635;-35.248;149.138;2023-12-14T04:57:55;28.20;42.80
39931;DHT22;26635;-35.248;149.138;2023-12-14T05:00:26;28.10;43.30
39931;DHT22;26635;-35.248;149.138;2023-12-14T05:02:57;28.10;43.60
39931;DHT22;26635;-35.248;149.138;2023-12-14T05:05:28;28.00;44.30
39931;DHT22;26635;-35.248;149.138;2023-12-14T05:07:58;28.10;43.90
39931;DHT22;26635;-35.248;149.138;2023-12-14T05:10:28;28.10;43.00
39931;DHT22;26635;-35.248;149.138;2023-12-14T05:13:01;28.10;43.90
39931;DHT22;26635;-35.248;149.138;2023-12-14T05:15:32;28.00;44.10
39931;DHT22;26635;-35.248;149.138;2023-12-14T05:18:02;28.00;42.40
39931;DHT22;26635;-35.248;149.138;2023-12-14T05:20:34;27.90;41.60
39931;DHT22;26635;-35.248;149.138;2023-12-14T05:23:05;27.80;42.30
39931;DHT22;26635;-35.248;149.138;2023-12-14T05:25:35;27.80;42.80
39931;DHT22;26635;-35.248;149.138;2023-12-14T05:28:05;27.70;42.50
39931;DHT22;26635;-35.248;149.138;2023-12-14T05:30:36;27.80;44.00
39931;DHT22;26635;-35.248;149.138;2023-12-14T05:33:06;27.70;43.40
39931;DHT22;26635;-35.248;149.138;2023-12-14T05:35:40;27.80;42.90
39931;DHT22;26635;-35.248;149.138;2023-12-14T05:38:10;27.70;43.60
39931;DHT22;26635;-35.248;149.138;2023-12-14T05:40:41;27.70;42.30
39931;DHT22;26635;-35.248;149.138;2023-12-14T05:43:11;27.70;41.40
39931;DHT22;26635;-35.248;149.138;2023-12-14T05:45:42;27.60;41.00
39931;DHT22;26635;-35.248;149.138;2023-12-14T05:48:13;27.60;42.30
39931;DHT22;26635;-35.248;149.138;2023-12-14T05:50:44;27.50;41.00
39931;DHT22;26635;-35.248;149.138;2023-12-14T05:53:14;27.50;42.00
39931;DHT22;26635;-35.248;149.138;2023-12-14T05:55:45;27.50;42.90
39931;DHT22;26635;-35.248;149.138;2023-12-14T05:58:15;27.40;42.10
39931;DHT22;26635;-35.248;149.138;2023-12-14T06:00:46;27.40;41.90
39931;DHT22;26635;-35.248;149.138;2023-12-14T06:03:16;27.40;42.00
39931;DHT22;26635;-35.248;149.138;2023-12-14T06:05:48;27.40;42.80
39931;DHT22;26635;-35.248;149.138;2023-12-14T06:08:22;27.40;43.10
39931;DHT22;26635;-35.248;149.138;2023-12-14T06:10:57;27.30;43.40
39931;DHT22;26635;-35.248;149.138;2023-12-14T06:13:27;27.30;43.20
39931;DHT22;26635;-35.248;149.138;2023-12-14T06:15:58;27.30;42.40
39931;DHT22;26635;-35.248;149.138;2023-12-14T06:18:28;27.20;42.10
39931;DHT22;26635;-35.248;149.138;2023-12-14T06:21:00;27.20;41.50
39931;DHT22;26635;-35.248;149.138;2023-12-14T06:23:31;27.10;41.30
39931;DHT22;26635;-35.248;149.138;2023-12-14T06:26:03;27.10;40.90
39931;DHT22;26635;-35.248;149.138;2023-12-14T06:28:34;27.00;39.40
39931;DHT22;26635;-35.248;149.138;2023-12-14T06:31:05;27.00;39.80
39931;DHT22;26635;-35.248;149.138;2023-12-14T06:33:37;26.90;41.50
39931;DHT22;26635;-35.248;149.138;2023-12-14T06:36:10;26.90;40.30
39931;DHT22;26635;-35.248;149.138;2023-12-14T06:38:41;26.80;40.70
39931;DHT22;26635;-35.248;149.138;2023-12-14T06:41:24;26.80;40.30
39931;DHT22;26635;-35.248;149.138;2023-12-14T06:43:55;26.80;40.50
39931;DHT22;26635;-35.248;149.138;2023-12-14T06:46:25;26.80;41.80
39931;DHT22;26635;-35.248;149.138;2023-12-14T06:48:56;26.90;40.70
39931;DHT22;26635;-35.248;149.138;2023-12-14T06:51:26;26.80;40.80
39931;DHT22;26635;-35.248;149.138;2023-12-14T06:53:56;26.80;41.10
39931;DHT22;26635;-35.248;149.138;2023-12-14T06:56:27;26.70;40.70
39931;DHT22;26635;-35.248;149.138;2023-12-14T06:58:57;26.60;40.60
39931;DHT22;26635;-35.248;149.138;2023-12-14T07:01:28;26.60;42.00
39931;DHT22;26635;-35.248;149.138;2023-12-14T07:03:58;26.50;42.10
39931;DHT22;26635;-35.248;149.138;2023-12-14T07:06:29;26.50;41.20
39931;DHT22;26635;-35.248;149.138;2023-12-14T07:09:00;26.50;40.30
39931;DHT22;26635;-35.248;149.138;2023-12-14T07:11:30;26.50;41.40
39931;DHT22;26635;-35.248;149.138;2023-12-14T07:14:01;26.50;42.10
39931;DHT22;26635;-35.248;149.138;2023-12-14T07:16:32;26.50;41.90
39931;DHT22;26635;-35.248;149.138;2023-12-14T07:19:02;26.40;42.60
39931;DHT22;26635;-35.248;149.138;2023-12-14T07:21:32;26.40;42.00
39931;DHT22;26635;-35.248;149.138;2023-12-14T07:24:03;26.30;41.90
39931;DHT22;26635;-35.248;149.138;2023-12-14T07:26:34;26.20;42.70
39931;DHT22;26635;-35.248;149.138;2023-12-14T07:29:04;26.20;43.20
39931;DHT22;26635;-35.248;149.138;2023-12-14T07:31:35;26.20;42.90
39931;DHT22;26635;-35.248;149.138;2023-12-14T07:34:06;26.20;44.50
39931;DHT22;26635;-35.248;149.138;2023-12-14T07:36:37;26.10;43.50
39931;DHT22;26635;-35.248;149.138;2023-12-14T07:39:09;26.00;44.30
39931;DHT22;26635;-35.248;149.138;2023-12-14T07:41:39;25.90;45.00
39931;DHT22;26635;-35.248;149.138;2023-12-14T07:44:10;25.80;45.30
39931;DHT22;26635;-35.248;149.138;2023-12-14T07:46:40;25.70;44.80
39931;DHT22;26635;-35.248;149.138;2023-12-14T07:49:12;25.60;44.20
39931;DHT22;26635;-35.248;149.138;2023-12-14T07:51:43;25.50;44.70
39931;DHT22;26635;-35.248;149.138;2023-12-14T07:54:13;25.50;46.40
39931;DHT22;26635;-35.248;149.138;2023-12-14T07:56:44;25.50;44.80
39931;DHT22;26635;-35.248;149.138;2023-12-14T07:59:14;25.40;46.00
39931;DHT22;26635;-35.248;149.138;2023-12-14T08:01:45;25.40;45.20
39931;DHT22;26635;-35.248;149.138;2023-12-14T08:04:16;25.40;45.70
39931;DHT22;26635;-35.248;149.138;2023-12-14T08:06:47;25.40;46.60
39931;DHT22;26635;-35.248;149.138;2023-12-14T08:09:17;25.30;47.00
39931;DHT22;26635;-35.248;149.138;2023-12-14T08:11:48;25.30;46.40
39931;DHT22;26635;-35.248;149.138;2023-12-14T08:14:19;25.20;46.60
39931;DHT22;26635;-35.248;149.138;2023-12-14T08:16:50;25.10;47.00
39931;DHT22;26635;-35.248;149.138;2023-12-14T08:19:20;25.00;45.90
39931;DHT22;26635;-35.248;149.138;2023-12-14T08:21:52;24.90;47.20
39931;DHT22;26635;-35.248;149.138;2023-12-14T08:24:22;24.80;46.00
39931;DHT22;26635;-35.248;149.138;2023-12-14T08:26:53;24.70;48.30
39931;DHT22;26635;-35.248;149.138;2023-12-14T08:29:23;24.70;47.80
39931;DHT22;26635;-35.248;149.138;2023-12-14T08:31:54;24.70;46.60
39931;DHT22;26635;-35.248;149.138;2023-12-14T08:34:27;24.60;46.50
39931;DHT22;26635;-35.248;149.138;2023-12-14T08:37:00;24.60;47.10
39931;DHT22;26635;-35.248;149.138;2023-12-14T08:39:31;24.50;48.40
39931;DHT22;26635;-35.248;149.138;2023-12-14T08:42:01;24.50;48.40
39931;DHT22;26635;-35.248;149.138;2023-12-14T08:44:31;24.50;49.90
39931;DHT22;26635;-35.248;149.138;2023-12-14T08:47:02;24.40;49.10
39931;DHT22;26635;-35.248;149.138;2023-12-14T08:49:34;24.40;49.10
39931;DHT22;26635;-35.248;149.138;2023-12-14T08:52:05;24.40;49.40
39931;DHT22;26635;-35.248;149.138;2023-12-14T08:54:35;24.30;50.80
39931;DHT22;26635;-35.248;149.138;2023-12-14T08:57:06;24.20;48.60
39931;DHT22;26635;-35.248;149.138;2023-12-14T08:59:36;24.10;50.20
39931;DHT22;26635;-35.248;149.138;2023-12-14T09:02:10;24.10;50.10
39931;DHT22;26635;-35.248;149.138;2023-12-14T09:04:41;24.10;50.50
39931;DHT22;26635;-35.248;149.138;2023-12-14T09:07:11;24.00;49.80
39931;DHT22;26635;-35.248;149.138;2023-12-14T09:09:42;24.00;50.20
39931;DHT22;26635;-35.248;149.138;2023-12-14T09:12:13;23.90;52.30
39931;DHT22;26635;-35.248;149.138;2023-12-14T09:14:43;23.80;50.20
39931;DHT22;26635;-35.248;149.138;2023-12-14T09:17:14;23.80;50.40
39931;DHT22;26635;-35.248;149.138;2023-12-14T09:19:44;23.70;51.00
39931;DHT22;26635;-35.248;149.138;2023-12-14T09:22:15;23.60;50.90
39931;DHT22;26635;-35.248;149.138;2023-12-14T09:24:48;23.60;52.70
39931;DHT22;26635;-35.248;149.138;2023-12-14T09:27:20;23.50;52.10
39931;DHT22;26635;-35.248;149.138;2023-12-14T09:29:51;23.50;52.00
39931;DHT22;26635;-35.248;149.138;2023-12-14T09:32:23;23.40;52.10
39931;DHT22;26635;-35.248;149.138;2023-12-14T09:34:56;23.30;53.50
39931;DHT22;26635;-35.248;149.138;2023-12-14T09:37:27;23.20;55.40
39931;DHT22;26635;-35.248;149.138;2023-12-14T09:39:57;23.20;53.40
39931;DHT22;26635;-35.248;149.138;2023-12-14T09:42:28;23.10;53.50
39931;DHT22;26635;-35.248;149.138;2023-12-14T09:45:07;23.10;54.50
39931;DHT22;26635;-35.248;149.138;2023-12-14T09:47:38;23.10;54.10
39931;DHT22;26635;-35.248;149.138;2023-12-14T09:50:10;23.00;55.00
39931;DHT22;26635;-35.248;149.138;2023-12-14T09:52:41;23.00;53.30
39931;DHT22;26635;-35.248;149.138;2023-12-14T09:55:15;23.00;53.60
39931;DHT22;26635;-35.248;149.138;2023-12-14T09:57:46;23.00;54.50
39931;DHT22;26635;-35.248;149.138;2023-12-14T10:00:40;22.90;54.40
39931;DHT22;26635;-35.248;149.138;2023-12-14T10:03:27;22.80;54.60
39931;DHT22;26635;-35.248;149.138;2023-12-14T10:05:58;22.80;55.00
39931;DHT22;26635;-35.248;149.138;2023-12-14T10:08:31;22.70;55.00
39931;DHT22;26635;-35.248;149.138;2023-12-14T10:11:02;22.60;56.00
39931;DHT22;26635;-35.248;149.138;2023-12-14T10:13:38;22.50;55.10
39931;DHT22;26635;-35.248;149.138;2023-12-14T10:16:09;22.50;55.30
39931;DHT22;26635;-35.248;149.138;2023-12-14T10:18:39;22.40;56.20
39931;DHT22;26635;-35.248;149.138;2023-12-14T10:21:10;22.40;56.60
39931;DHT22;26635;-35.248;149.138;2023-12-14T10:23:40;22.40;55.40
39931;DHT22;26635;-35.248;149.138;2023-12-14T10:26:11;22.40;56.10
39931;DHT22;26635;-35.248;149.138;2023-12-14T10:28:41;22.40;55.40
39931;DHT22;26635;-35.248;149.138;2023-12-14T10:31:12;22.30;54.50
39931;DHT22;26635;-35.248;149.138;2023-12-14T10:33:43;22.40;55.30
39931;DHT22;26635;-35.248;149.138;2023-12-14T10:36:19;22.30;54.60
39931;DHT22;26635;-35.248;149.138;2023-12-14T10:38:56;22.30;55.90
39931;DHT22;26635;-35.248;149.138;2023-12-14T10:41:27;22.20;57.90
39931;DHT22;26635;-35.248;149.138;2023-12-14T10:44:01;22.10;55.30
39931;DHT22;26635;-35.248;149.138;2023-12-14T10:46:55;22.00;57.30
39931;DHT22;26635;-35.248;149.138;2023-12-14T10:49:29;22.00;56.40
39931;DHT22;26635;-35.248;149.138;2023-12-14T10:52:01;22.00;57.00
39931;DHT22;26635;-35.248;149.138;2023-12-14T10:54:36;21.90;58.20
39931;DHT22;26635;-35.248;149.138;2023-12-14T10:57:07;21.80;58.50
39931;DHT22;26635;-35.248;149.138;2023-12-14T10:59:38;21.70;59.10
39931;DHT22;26635;-35.248;149.138;2023-12-14T11:02:09;21.60;60.00
39931;DHT22;26635;-35.248;149.138;2023-12-14T11:05:07;21.50;60.00
39931;DHT22;26635;-35.248;149.138;2023-12-14T11:08:02;21.50;60.20
39931;DHT22;26635;-35.248;149.138;2023-12-14T11:11:04;21.40;61.20
39931;DHT22;26635;-35.248;149.138;2023-12-14T11:13:41;21.30;61.40
39931;DHT22;26635;-35.248;149.138;2023-12-14T11:16:15;21.20;62.10
39931;DHT22;26635;-35.248;149.138;2023-12-14T11:18:45;21.10;61.40
39931;DHT22;26635;-35.248;149.138;2023-12-14T11:21:19;21.00;62.60
39931;DHT22;26635;-35.248;149.138;2023-12-14T11:23:54;21.00;63.30
39931;DHT22;26635;-35.248;149.138;2023-12-14T11:26:25;20.90;62.50
39931;DHT22;26635;-35.248;149.138;2023-12-14T11:28:58;20.80;63.10
39931;DHT22;26635;-35.248;149.138;2023-12-14T11:31:30;20.70;63.20
39931;DHT22;26635;-35.248;149.138;2023-12-14T11:34:00;20.60;63.50
39931;DHT22;26635;-35.248;149.138;2023-12-14T11:36:34;20.60;64.30
39931;DHT22;26635;-35.248;149.138;2023-12-14T11:39:12;20.50;64.10
39931;DHT22;26635;-35.248;149.138;2023-12-14T11:41:42;20.40;64.60
39931;DHT22;26635;-35.248;149.138;2023-12-14T11:44:22;20.40;65.60
39931;DHT22;26635;-35.248;149.138;2023-12-14T11:46:53;20.30;64.70
39931;DHT22;26635;-35.248;149.138;2023-12-14T11:49:26;20.30;65.20
39931;DHT22;26635;-35.248;149.138;2023-12-14T11:52:02;20.20;66.70
39931;DHT22;26635;-35.248;149.138;2023-12-14T11:54:35;20.20;66.30
39931;DHT22;26635;-35.248;149.138;2023-12-14T11:57:07;20.10;66.10
39931;DHT22;26635;-35.248;149.138;2023-12-14T11:59:39;20.00;67.10
39931;DHT22;26635;-35.248;149.138;2023-12-14T12:02:10;20.00;67.00
39931;DHT22;26635;-35.248;149.138;2023-12-14T12:04:50;19.90;67.40
39931;DHT22;26635;-35.248;149.138;2023-12-14T12:07:24;19.80;68.40
39931;DHT22;26635;-35.248;149.138;2023-12-14T12:09:54;19.80;67.80
39931;DHT22;26635;-35.248;149.138;2023-12-14T12:12:25;19.70;68.00
39931;DHT22;26635;-35.248;149.138;2023-12-14T12:14:55;19.70;68.30
39931;DHT22;26635;-35.248;149.138;2023-12-14T12:17:25;19.60;69.00
39931;DHT22;26635;-35.248;149.138;2023-12-14T12:19:56;19.50;68.90
39931;DHT22;26635;-35.248;149.138;2023-12-14T12:22:27;19.50;70.10
39931;DHT22;26635;-35.248;149.138;2023-12-14T12:24:57;19.40;69.10
39931;DHT22;26635;-35.248;149.138;2023-12-14T12:27:42;19.40;69.30
39931;DHT22;26635;-35.248;149.138;2023-12-14T12:30:13;19.40;69.30
39931;DHT22;26635;-35.248;149.138;2023-12-14T12:32:44;19.40;69.70
39931;DHT22;26635;-35.248;149.138;2023-12-14T12:35:15;19.30;70.00
39931;DHT22;26635;-35.248;149.138;2023-12-14T12:37:46;19.30;70.30
39931;DHT22;26635;-35.248;149.138;2023-12-14T12:40:16;19.20;71.10
39931;DHT22;26635;-35.248;149.138;2023-12-14T12:42:50;19.10;70.60
39931;DHT22;26635;-35.248;149.138;2023-12-14T12:45:20;19.10;71.10
39931;DHT22;26635;-35.248;149.138;2023-12-14T12:47:57;19.00;71.10
39931;DHT22;26635;-35.248;149.138;2023-12-14T12:50:28;19.00;71.70
39931;DHT22;26635;-35.248;149.138;2023-12-14T12:52:58;18.90;71.60
39931;DHT22;26635;-35.248;149.138;2023-12-14T12:55:29;18.90;71.90
39931;DHT22;26635;-35.248;149.138;2023-12-14T12:57:59;18.80;72.10
39931;DHT22;26635;-35.248;149.138;2023-12-14T13:00:34;18.80;72.50
39931;DHT22;26635;-35.248;149.138;2023-12-14T13:03:06;18.80;72.60
39931;DHT22;26635;-35.248;149.138;2023-12-14T13:05:39;18.70;72.90
39931;DHT22;26635;-35.248;149.138;2023-12-14T13:08:09;18.70;73.30
39931;DHT22;26635;-35.248;149.138;2023-12-14T13:10:41;18.60;73.50
39931;DHT22;26635;-35.248;149.138;2023-12-14T13:13:14;18.50;74.10
39931;DHT22;26635;-35.248;149.138;2023-12-14T13:15:44;18.40;74.20
39931;DHT22;26635;-35.248;149.138;2023-12-14T13:18:15;18.40;74.50
39931;DHT22;26635;-35.248;149.138;2023-12-14T13:20:46;18.30;74.80
39931;DHT22;26635;-35.248;149.138;2023-12-14T13:23:16;18.30;74.60
39931;DHT22;26635;-35.248;149.138;2023-12-14T13:25:47;18.20;73.90
39931;DHT22;26635;-35.248;149.138;2023-12-14T13:28:17;18.20;73.70
39931;DHT22;26635;-35.248;149.138;2023-12-14T13:30:48;18.20;74.80
39931;DHT22;26635;-35.248;149.138;2023-12-14T13:33:18;18.20;75.20
39931;DHT22;26635;-35.248;149.138;2023-12-14T13:35:48;18.20;73.90
39931;DHT22;26635;-35.248;149.138;2023-12-14T13:38:28;18.10;74.40
39931;DHT22;26635;-35.248;149.138;2023-12-14T13:40:58;18.10;75.50
39931;DHT22;26635;-35.248;149.138;2023-12-14T13:43:29;18.00;75.00
39931;DHT22;26635;-35.248;149.138;2023-12-14T13:45:59;18.10;74.90
39931;DHT22;26635;-35.248;149.138;2023-12-14T13:48:46;18.10;75.10
39931;DHT22;26635;-35.248;149.138;2023-12-14T13:51:16;18.00;75.50
39931;DHT22;26635;-35.248;149.138;2023-12-14T13:53:46;18.00;75.40
39931;DHT22;26635;-35.248;149.138;2023-12-14T13:56:17;17.90;75.90
39931;DHT22;26635;-35.248;149.138;2023-12-14T13:58:47;17.80;76.70
39931;DHT22;26635;-35.248;149.138;2023-12-14T14:01:19;17.80;76.20
39931;DHT22;26635;-35.248;149.138;2023-12-14T14:03:50;17.70;76.60
39931;DHT22;26635;-35.248;149.138;2023-12-14T14:06:20;17.70;76.90
39931;DHT22;26635;-35.248;149.138;2023-12-14T14:08:52;17.60;77.60
39931;DHT22;26635;-35.248;149.138;2023-12-14T14:11:24;17.60;78.00
39931;DHT22;26635;-35.248;149.138;2023-12-14T14:13:54;17.60;78.10
39931;DHT22;26635;-35.248;149.138;2023-12-14T14:16:25;17.50;78.20
39931;DHT22;26635;-35.248;149.138;2023-12-14T14:18:55;17.50;77.70
39931;DHT22;26635;-35.248;149.138;2023-12-14T14:21:26;17.60;78.00
39931;DHT22;26635;-35.248;149.138;2023-12-14T14:23:56;17.60;77.70
39931;DHT22;26635;-35.248;149.138;2023-12-14T14:26:27;17.50;77.80
39931;DHT22;26635;-35.248;149.138;2023-12-14T14:28:57;17.60;78.50
39931;DHT22;26635;-35.248;149.138;2023-12-14T14:31:31;17.50;77.90
39931;DHT22;26635;-35.248;149.138;2023-12-14T14:34:01;17.50;78.40
39931;DHT22;26635;-35.248;149.138;2023-12-14T14:36:32;17.40;78.40
39931;DHT22;26635;-35.248;149.138;2023-12-14T14:39:02;17.30;78.50
39931;DHT22;26635;-35.248;149.138;2023-12-14T14:41:34;17.40;78.40
39931;DHT22;26635;-35.248;149.138;2023-12-14T14:44:04;17.30;79.40
39931;DHT22;26635;-35.248;149.138;2023-12-14T14:46:38;17.30;78.70
39931;DHT22;26635;-35.248;149.138;2023-12-14T14:49:09;17.30;78.30
39931;DHT22;26635;-35.248;149.138;2023-12-14T14:51:39;17.30;77.90
39931;DHT22;26635;-35.248;149.138;2023-12-14T14:54:10;17.20;77.70
39931;DHT22;26635;-35.248;149.138;2023-12-14T14:56:41;17.20;78.00
39931;DHT22;26635;-35.248;149.138;2023-12-14T14:59:12;17.20;77.50
39931;DHT22;26635;-35.248;149.138;2023-12-14T15:01:45;17.20;79.30
39931;DHT22;26635;-35.248;149.138;2023-12-14T15:04:16;17.10;77.60
39931;DHT22;26635;-35.248;149.138;2023-12-14T15:06:47;17.10;78.80
39931;DHT22;26635;-35.248;149.138;2023-12-14T15:09:18;17.10;79.10
39931;DHT22;26635;-35.248;149.138;2023-12-14T15:11:49;17.00;78.40
39931;DHT22;26635;-35.248;149.138;2023-12-14T15:14:19;17.10;78.50